Time;durP1;ratioP1;P1;durP2;ratioP2;P2;SDS_P1;SDS_P2;PMS_P1;PMS_P2;Temp;Humidity;BMP_temperature;BMP_pressure;BME280_temperature;BME280_humidity;BME280_pressure;Samples;Min_cycle;Max_cycle;Signal;HPM_P1;HPM_P2
2023/10/23 00:01:17;;;;;;;10.45;6.70;;;;;;;;;;4878375;29;20229;-56
2023/10/23 00:03:44;;;;;;;11.68;6.38;;;;;;;;;;4877929;29;20266;-55
2023/10/23 00:06:11;;;;;;;10.55;7.10;;;;;;;;;;4878095;29;20672;-57
2023/10/23 00:08:38;;;;;;;10.68;6.88;;;;;;;;;;4878057;29;20210;-57
2023/10/23 00:11:06;;;;;;;9.45;6.43;;;;;;;;;;4878016;29;20697;-57
2023/10/23 00:13:33;;;;;;;11.15;6.07;;;;;;;;;;4878496;29;20263;-55
2023/10/23 00:16:00;;;;;;;12.30;6.95;;;;;;;;;;4878224;29;20242;-56
2023/10/23 00:18:27;;;;;;;14.68;7.75;;;;;;;;;;4878221;29;20225;-58
2023/10/23 00:20:56;;;;;;;11.30;6.90;;;;;;;;;;4877963;29;20210;-56
2023/10/23 00:23:23;;;;;;;11.48;7.10;;;;;;;;;;4877915;29;20308;-57
2023/10/23 00:25:50;;;;;;;9.82;6.60;;;;;;;;;;4877639;29;20242;-56
2023/10/23 00:28:17;;;;;;;10.02;7.05;;;;;;;;;;4877910;29;20213;-55
2023/10/23 00:30:44;;;;;;;11.63;7.30;;;;;;;;;;4876808;29;20210;-56
2023/10/23 00:33:11;;;;;;;12.20;7.68;;;;;;;;;;4875786;29;20731;-57
2023/10/23 00:35:39;;;;;;;10.55;7.40;;;;;;;;;;4876664;29;20240;-56
2023/10/23 00:38:06;;;;;;;12.77;7.80;;;;;;;;;;4877909;29;20237;-56
2023/10/23 00:40:33;;;;;;;12.75;7.75;;;;;;;;;;4877739;29;20745;-57
2023/10/23 00:43:16;;;;;;;12.20;7.55;;;;;;;;;;4877796;29;20748;-57
2023/10/23 00:46:14;;;;;;;12.93;7.97;;;;;;;;;;4877982;29;20214;-58
2023/10/23 00:48:42;;;;;;;13.77;7.55;;;;;;;;;;4877923;29;20206;-56
2023/10/23 00:51:12;;;;;;;11.73;7.97;;;;;;;;;;4876479;29;20210;-56
2023/10/23 00:53:40;;;;;;;8.88;6.93;;;;;;;;;;4878002;29;20614;-57
2023/10/23 00:56:09;;;;;;;13.10;7.65;;;;;;;;;;4877691;29;20242;-56
2023/10/23 00:58:38;;;;;;;9.80;7.10;;;;;;;;;;4877700;29;20217;-57
2023/10/23 01:01:06;;;;;;;12.07;8.07;;;;;;;;;;4877637;29;20205;-57
2023/10/23 01:03:33;;;;;;;10.90;7.68;;;;;;;;;;4876478;29;20216;-56
2023/10/23 01:06:01;;;;;;;11.13;7.68;;;;;;;;;;4876603;29;20273;-57
2023/10/23 01:08:28;;;;;;;14.40;7.95;;;;;;;;;;4877453;29;20634;-58
2023/10/23 01:10:55;;;;;;;12.50;7.55;;;;;;;;;;4876506;29;20217;-57
2023/10/23 01:13:24;;;;;;;10.63;7.47;;;;;;;;;;4876487;29;20217;-56
2023/10/23 01:15:52;;;;;;;13.23;8.00;;;;;;;;;;4878907;29;20602;-57
2023/10/23 01:18:19;;;;;;;12.73;8.75;;;;;;;;;;4881416;29;20266;-58
2023/10/23 01:20:48;;;;;;;16.63;8.80;;;;;;;;;;4880065;29;20206;-57
2023/10/23 01:23:15;;;;;;;14.45;9.13;;;;;;;;;;4881163;29;20647;-57
2023/10/23 01:25:42;;;;;;;15.90;9.18;;;;;;;;;;4880832;29;20730;-56
2023/10/23 01:28:10;;;;;;;14.90;9.00;;;;;;;;;;4879913;29;20274;-57
2023/10/23 01:30:38;;;;;;;14.85;9.02;;;;;;;;;;4881051;29;20218;-57
2023/10/23 01:33:05;;;;;;;14.80;9.50;;;;;;;;;;4881081;29;20213;-56
2023/10/23 01:35:32;;;;;;;16.35;9.77;;;;;;;;;;4880996;29;20233;-56
2023/10/23 01:37:59;;;;;;;14.35;8.73;;;;;;;;;;4879701;29;20198;-57
2023/10/23 01:40:27;;;;;;;14.77;9.30;;;;;;;;;;4878416;29;20331;-57
2023/10/23 01:42:54;;;;;;;16.45;9.38;;;;;;;;;;4880690;29;20303;-57
2023/10/23 01:45:22;;;;;;;16.05;9.60;;;;;;;;;;4879343;29;20217;-57
2023/10/23 01:47:49;;;;;;;17.05;9.32;;;;;;;;;;4880741;29;20217;-57
2023/10/23 01:50:16;;;;;;;13.60;9.38;;;;;;;;;;4880758;29;20206;-56
2023/10/23 01:52:44;;;;;;;16.90;9.60;;;;;;;;;;4880664;29;20676;-58
2023/10/23 01:55:12;;;;;;;13.93;9.45;;;;;;;;;;4880680;29;20213;-57
2023/10/23 01:57:39;;;;;;;15.00;10.10;;;;;;;;;;4880349;29;20210;-57
2023/10/23 02:00:09;;;;;;;17.40;10.70;;;;;;;;;;4879116;29;20213;-56
2023/10/23 02:02:41;;;;;;;16.05;10.55;;;;;;;;;;4879270;29;20210;-57
2023/10/23 02:05:09;;;;;;;17.23;10.52;;;;;;;;;;4880166;29;20210;-55
2023/10/23 02:07:36;;;;;;;17.15;10.48;;;;;;;;;;4880170;29;20616;-58
2023/10/23 02:10:03;;;;;;;17.90;10.65;;;;;;;;;;4880111;29;20210;-57
2023/10/23 02:12:32;;;;;;;17.23;11.00;;;;;;;;;;4879989;29;20214;-55
2023/10/23 02:14:59;;;;;;;15.50;10.88;;;;;;;;;;4878852;29;20206;-57
2023/10/23 02:17:28;;;;;;;16.55;10.63;;;;;;;;;;4879949;29;20241;-57
2023/10/23 02:19:56;;;;;;;17.00;10.40;;;;;;;;;;4878887;29;20243;-57
2023/10/23 02:22:23;;;;;;;16.48;10.82;;;;;;;;;;4878823;29;20321;-56
2023/10/23 02:24:50;;;;;;;19.35;11.23;;;;;;;;;;4880307;29;20242;-57
2023/10/23 02:27:19;;;;;;;17.02;9.80;;;;;;;;;;4878432;29;20207;-57
2023/10/23 02:29:47;;;;;;;15.57;9.77;;;;;;;;;;4878801;29;20206;-58
2023/10/23 02:32:14;;;;;;;16.80;9.50;;;;;;;;;;4878739;29;20216;-58
2023/10/23 02:34:43;;;;;;;15.65;10.48;;;;;;;;;;4878742;29;20507;-57
2023/10/23 02:37:10;;;;;;;17.98;10.68;;;;;;;;;;4878375;29;20286;-57
2023/10/23 02:39:37;;;;;;;17.33;10.02;;;;;;;;;;4879663;29;20237;-57
2023/10/23 02:42:05;;;;;;;16.23;9.77;;;;;;;;;;4879575;29;20233;-57
2023/10/23 02:44:32;;;;;;;17.33;9.68;;;;;;;;;;4878403;29;20225;-58
2023/10/23 02:46:59;;;;;;;17.15;9.32;;;;;;;;;;4878621;29;20210;-56
2023/10/23 02:49:27;;;;;;;15.43;9.57;;;;;;;;;;4879955;29;20210;-56
2023/10/23 02:51:54;;;;;;;13.45;8.90;;;;;;;;;;4878436;29;20206;-57
2023/10/23 02:54:21;;;;;;;15.57;9.75;;;;;;;;;;4879663;29;20214;-57
2023/10/23 02:56:48;;;;;;;15.68;9.70;;;;;;;;;;4878245;29;20240;-57
2023/10/23 02:59:15;;;;;;;15.05;9.40;;;;;;;;;;4879289;29;20214;-57
2023/10/23 03:01:42;;;;;;;13.35;8.73;;;;;;;;;;4879296;29;20297;-57
2023/10/23 03:04:10;;;;;;;14.15;9.18;;;;;;;;;;4879315;29;20586;-57
2023/10/23 03:06:37;;;;;;;13.20;8.70;;;;;;;;;;4877961;29;20292;-56
2023/10/23 03:09:04;;;;;;;15.85;9.50;;;;;;;;;;4877895;29;20206;-56
2023/10/23 03:11:32;;;;;;;12.60;8.02;;;;;;;;;;4879273;29;20202;-56
2023/10/23 03:13:59;;;;;;;13.95;8.07;;;;;;;;;;4878027;29;20206;-57
2023/10/23 03:16:26;;;;;;;15.48;8.52;;;;;;;;;;4877668;29;20225;-56
2023/10/23 03:18:54;;;;;;;13.05;8.18;;;;;;;;;;4877698;29;20214;-57
2023/10/23 03:21:22;;;;;;;12.13;7.70;;;;;;;;;;4879088;29;20244;-58
2023/10/23 03:23:50;;;;;;;13.45;8.10;;;;;;;;;;4877849;29;20209;-57
2023/10/23 03:26:17;;;;;;;11.40;6.90;;;;;;;;;;4878908;29;20238;-58
2023/10/23 03:28:45;;;;;;;13.45;7.63;;;;;;;;;;4878651;29;20225;-57
2023/10/23 03:31:12;;;;;;;12.35;7.35;;;;;;;;;;4878641;29;20198;-56
2023/10/23 03:33:40;;;;;;;13.60;7.75;;;;;;;;;;4878602;29;20202;-56
2023/10/23 03:36:07;;;;;;;8.63;6.57;;;;;;;;;;4878830;29;20226;-57
2023/10/23 03:38:34;;;;;;;11.45;6.95;;;;;;;;;;4877982;29;20667;-57
2023/10/23 03:41:02;;;;;;;11.70;7.07;;;;;;;;;;4878853;29;20241;-56
2023/10/23 03:43:29;;;;;;;9.60;6.25;;;;;;;;;;4877458;29;20206;-57
2023/10/23 03:45:58;;;;;;;9.00;6.05;;;;;;;;;;4878402;29;20702;-57
2023/10/23 03:48:25;;;;;;;9.45;5.50;;;;;;;;;;4861905;29;20221;-57
2023/10/23 03:50:52;;;;;;;10.05;6.35;;;;;;;;;;4877193;29;20590;-58
2023/10/23 03:53:20;;;;;;;8.95;5.47;;;;;;;;;;4878554;29;20206;-57
2023/10/23 03:55:47;;;;;;;8.70;5.50;;;;;;;;;;4878255;29;20210;-58
2023/10/23 03:58:14;;;;;;;7.53;5.03;;;;;;;;;;4878271;29;20612;-58
2023/10/23 04:00:41;;;;;;;7.72;5.00;;;;;;;;;;4878205;29;20244;-57
2023/10/23 04:03:11;;;;;;;10.07;5.07;;;;;;;;;;4863964;29;20226;-57
2023/10/23 04:05:40;;;;;;;8.65;4.90;;;;;;;;;;4877168;29;20232;-57
2023/10/23 04:08:08;;;;;;;7.22;4.80;;;;;;;;;;4895930;29;20774;-57
2023/10/23 04:10:35;;;;;;;6.50;4.85;;;;;;;;;;4877159;29;20226;-56
2023/10/23 04:13:02;;;;;;;5.72;4.15;;;;;;;;;;4888269;29;20250;-56
2023/10/23 04:15:29;;;;;;;5.90;4.15;;;;;;;;;;4887616;29;20268;-56
2023/10/23 04:17:57;;;;;;;9.85;4.72;;;;;;;;;;4889341;29;20236;-56
2023/10/23 04:20:24;;;;;;;7.57;4.45;;;;;;;;;;4877468;29;20316;-58
2023/10/23 04:22:51;;;;;;;6.68;4.50;;;;;;;;;;4877195;29;20491;-57
2023/10/23 04:25:18;;;;;;;6.30;4.47;;;;;;;;;;4877450;29;20238;-58
2023/10/23 04:27:45;;;;;;;6.38;3.92;;;;;;;;;;4877275;29;20230;-57
2023/10/23 04:30:13;;;;;;;7.03;4.32;;;;;;;;;;4877228;29;20232;-56
2023/10/23 04:32:40;;;;;;;9.15;3.80;;;;;;;;;;4876878;29;20225;-57
2023/10/23 04:35:07;;;;;;;4.82;3.90;;;;;;;;;;4877269;29;20711;-57
2023/10/23 04:37:34;;;;;;;6.32;3.58;;;;;;;;;;4877039;29;20246;-57
2023/10/23 04:40:01;;;;;;;4.80;3.63;;;;;;;;;;4877186;29;20234;-58
2023/10/23 04:42:29;;;;;;;6.18;4.65;;;;;;;;;;4877085;29;20234;-57
2023/10/23 04:44:56;;;;;;;5.85;3.97;;;;;;;;;;4877212;29;20242;-58
2023/10/23 04:47:23;;;;;;;7.22;4.57;;;;;;;;;;4876173;29;20282;-58
2023/10/23 04:49:51;;;;;;;8.55;4.60;;;;;;;;;;4878314;29;20230;-57
2023/10/23 04:52:19;;;;;;;7.80;4.47;;;;;;;;;;4879286;29;20229;-57
2023/10/23 04:54:46;;;;;;;8.48;4.40;;;;;;;;;;4879649;29;20273;-57
2023/10/23 04:57:13;;;;;;;5.47;3.97;;;;;;;;;;4880035;29;20245;-57
2023/10/23 04:59:40;;;;;;;5.93;3.83;;;;;;;;;;4880636;29;20229;-56
2023/10/23 05:02:08;;;;;;;5.78;4.22;;;;;;;;;;4880219;29;20237;-58
2023/10/23 05:04:35;;;;;;;6.10;4.30;;;;;;;;;;4880369;29;20236;-57
2023/10/23 05:07:02;;;;;;;8.27;4.53;;;;;;;;;;4880917;29;20233;-58
2023/10/23 05:09:30;;;;;;;7.25;4.18;;;;;;;;;;4880130;29;20226;-58
2023/10/23 05:11:57;;;;;;;7.50;4.60;;;;;;;;;;4880536;29;20234;-58
2023/10/23 05:14:25;;;;;;;6.30;4.32;;;;;;;;;;4880228;29;20246;-57
2023/10/23 05:16:52;;;;;;;7.35;4.28;;;;;;;;;;4879525;29;20241;-55
2023/10/23 05:19:20;;;;;;;7.43;4.53;;;;;;;;;;4880073;29;20723;-57
2023/10/23 05:21:47;;;;;;;7.22;4.70;;;;;;;;;;4879785;29;20566;-56
2023/10/23 05:24:14;;;;;;;6.05;4.55;;;;;;;;;;4879628;29;20329;-55
2023/10/23 05:26:41;;;;;;;10.00;5.38;;;;;;;;;;4880498;29;20207;-55
2023/10/23 05:29:08;;;;;;;6.22;3.90;;;;;;;;;;4880342;29;20206;-57
2023/10/23 05:31:36;;;;;;;5.47;4.05;;;;;;;;;;4880701;29;20210;-58
2023/10/23 05:34:03;;;;;;;7.13;4.00;;;;;;;;;;4880547;29;20214;-57
2023/10/23 05:36:31;;;;;;;5.25;3.88;;;;;;;;;;4880426;29;20594;-56
2023/10/23 05:38:58;;;;;;;6.35;3.65;;;;;;;;;;4880532;29;20312;-55
2023/10/23 05:41:26;;;;;;;5.38;3.92;;;;;;;;;;4880822;29;20578;-57
2023/10/23 05:43:53;;;;;;;7.10;4.35;;;;;;;;;;4880599;29;20217;-58
2023/10/23 05:46:20;;;;;;;7.57;4.15;;;;;;;;;;4880416;29;20426;-57
2023/10/23 05:48:48;;;;;;;8.98;4.30;;;;;;;;;;4880592;29;20218;-55
2023/10/23 05:51:16;;;;;;;5.40;3.40;;;;;;;;;;4880749;29;20214;-57
2023/10/23 05:53:43;;;;;;;6.28;3.10;;;;;;;;;;4880866;29;20209;-56
2023/10/23 05:56:10;;;;;;;6.22;3.20;;;;;;;;;;4880524;29;20217;-56
2023/10/23 05:58:37;;;;;;;4.78;3.30;;;;;;;;;;4880030;29;20236;-56
2023/10/23 06:01:06;;;;;;;5.03;3.20;;;;;;;;;;4879527;29;20702;-57
2023/10/23 06:03:34;;;;;;;8.85;3.53;;;;;;;;;;4880236;29;20570;-57
2023/10/23 06:06:03;;;;;;;5.45;3.75;;;;;;;;;;4880212;29;20672;-57
2023/10/23 06:08:30;;;;;;;4.82;3.47;;;;;;;;;;4879057;29;20296;-57
2023/10/23 06:10:58;;;;;;;5.18;3.30;;;;;;;;;;4880434;29;20210;-56
2023/10/23 06:13:25;;;;;;;4.35;3.38;;;;;;;;;;4880026;29;20574;-57
2023/10/23 06:15:52;;;;;;;4.88;3.10;;;;;;;;;;4880106;29;20209;-57
2023/10/23 06:18:19;;;;;;;6.63;3.65;;;;;;;;;;4880390;29;20261;-58
2023/10/23 06:20:47;;;;;;;4.70;2.90;;;;;;;;;;4879995;29;20210;-55
2023/10/23 06:23:14;;;;;;;4.10;2.60;;;;;;;;;;4880096;29;20556;-57
2023/10/23 06:25:41;;;;;;;4.20;2.67;;;;;;;;;;4879784;29;20238;-58
2023/10/23 06:28:08;;;;;;;4.55;2.25;;;;;;;;;;4880228;29;20263;-57
2023/10/23 06:30:36;;;;;;;3.20;2.13;;;;;;;;;;4879780;29;20585;-57
2023/10/23 06:33:03;;;;;;;4.85;2.05;;;;;;;;;;4879707;29;20210;-58
2023/10/23 06:35:30;;;;;;;4.32;2.55;;;;;;;;;;4879896;29;20214;-58
2023/10/23 06:37:57;;;;;;;7.10;2.90;;;;;;;;;;4879472;29;20234;-57
2023/10/23 06:40:25;;;;;;;2.97;2.10;;;;;;;;;;4879587;29;20214;-56
2023/10/23 06:42:52;;;;;;;3.10;2.17;;;;;;;;;;4879542;29;20202;-57
2023/10/23 06:45:19;;;;;;;2.58;2.00;;;;;;;;;;4879972;29;20651;-57
2023/10/23 06:47:49;;;;;;;3.03;2.35;;;;;;;;;;4879409;29;20803;-57
2023/10/23 06:50:17;;;;;;;6.18;2.30;;;;;;;;;;4892756;29;20218;-56
2023/10/23 06:52:44;;;;;;;3.33;2.42;;;;;;;;;;4879477;29;20234;-56
2023/10/23 06:55:12;;;;;;;3.05;2.35;;;;;;;;;;4879362;29;20587;-57
2023/10/23 06:57:39;;;;;;;3.40;2.63;;;;;;;;;;4879131;29;20222;-58
2023/10/23 07:00:07;;;;;;;6.38;2.92;;;;;;;;;;4879459;29;20210;-57
2023/10/23 07:02:34;;;;;;;6.20;3.00;;;;;;;;;;4879352;29;20213;-58
2023/10/23 07:05:02;;;;;;;4.88;2.90;;;;;;;;;;4879252;29;20206;-57
2023/10/23 07:07:29;;;;;;;5.93;3.67;;;;;;;;;;4879137;29;20214;-58
2023/10/23 07:10:00;;;;;;;4.85;2.95;;;;;;;;;;4879114;29;20213;-57
2023/10/23 07:12:27;;;;;;;4.47;3.30;;;;;;;;;;4878985;29;20609;-56
2023/10/23 07:14:55;;;;;;;5.05;3.25;;;;;;;;;;4879023;29;20691;-57
2023/10/23 07:17:22;;;;;;;7.32;3.30;;;;;;;;;;4878958;29;20272;-57
2023/10/23 07:19:50;;;;;;;5.72;3.58;;;;;;;;;;4878909;29;20206;-57
2023/10/23 07:22:17;;;;;;;6.35;4.03;;;;;;;;;;4878813;29;20633;-57
2023/10/23 07:24:45;;;;;;;5.05;3.50;;;;;;;;;;4878771;29;20238;-58
2023/10/23 07:27:15;;;;;;;7.95;3.88;;;;;;;;;;4878823;29;20210;-57
2023/10/23 07:29:43;;;;;;;9.05;4.05;;;;;;;;;;4877890;29;20217;-57
2023/10/23 07:32:11;;;;;;;5.93;4.50;;;;;;;;;;4878681;29;20206;-56
2023/10/23 07:34:38;;;;;;;6.65;4.47;;;;;;;;;;4878698;29;20282;-56
2023/10/23 07:37:05;;;;;;;6.18;4.30;;;;;;;;;;4878431;29;20824;-56
2023/10/23 07:39:32;;;;;;;6.32;4.30;;;;;;;;;;4878490;29;20212;-57
2023/10/23 07:42:35;;;;;;;7.43;4.47;;;;;;;;;;4878724;29;20197;-55
2023/10/23 07:45:04;;;;;;;10.05;4.60;;;;;;;;;;4878878;29;20198;-57
2023/10/23 07:47:31;;;;;;;9.27;4.78;;;;;;;;;;4878457;29;20216;-57
2023/10/23 07:49:59;;;;;;;7.88;4.65;;;;;;;;;;4877239;29;20210;-58
2023/10/23 07:52:26;;;;;;;8.05;4.47;;;;;;;;;;4878519;29;20217;-57
2023/10/23 07:54:53;;;;;;;6.28;3.90;;;;;;;;;;4878686;29;20262;-56
2023/10/23 07:57:20;;;;;;;10.57;4.47;;;;;;;;;;4878184;29;20230;-57
2023/10/23 07:59:48;;;;;;;8.35;5.30;;;;;;;;;;4878261;29;20214;-56
2023/10/23 08:02:16;;;;;;;7.75;4.68;;;;;;;;;;4878633;29;20675;-55
2023/10/23 08:04:43;;;;;;;10.07;5.10;;;;;;;;;;4878442;29;20209;-55
2023/10/23 08:07:11;;;;;;;7.82;4.95;;;;;;;;;;4875897;29;20221;-58
2023/10/23 08:09:38;;;;;;;8.60;4.78;;;;;;;;;;4878291;29;20217;-57
2023/10/23 08:12:06;;;;;;;9.32;5.00;;;;;;;;;;4878104;29;20564;-57
2023/10/23 08:14:34;;;;;;;9.73;4.90;;;;;;;;;;4878120;29;20361;-57
2023/10/23 08:17:01;;;;;;;8.80;4.97;;;;;;;;;;4877894;29;20285;-57
2023/10/23 08:19:28;;;;;;;8.63;4.75;;;;;;;;;;4878323;29;20210;-57
2023/10/23 08:21:55;;;;;;;7.93;5.20;;;;;;;;;;4878006;29;20213;-57
2023/10/23 08:24:23;;;;;;;8.35;4.88;;;;;;;;;;4877691;29;20242;-56
2023/10/23 08:26:50;;;;;;;8.65;4.97;;;;;;;;;;4877969;29;20206;-57
2023/10/23 08:29:35;;;;;;;7.25;4.97;;;;;;;;;;4877847;29;20577;-55
2023/10/23 08:32:03;;;;;;;9.23;5.47;;;;;;;;;;4877819;29;20221;-56
2023/10/23 08:34:30;;;;;;;8.27;4.80;;;;;;;;;;4878040;29;20201;-57
2023/10/23 08:36:57;;;;;;;10.52;5.22;;;;;;;;;;4877986;29;20213;-55
2023/10/23 08:40:03;;;;;;;8.05;4.93;;;;;;;;;;4877841;29;20226;-58
2023/10/23 08:42:30;;;;;;;8.18;4.97;;;;;;;;;;4878050;29;20221;-56
2023/10/23 08:44:59;;;;;;;8.60;4.20;;;;;;;;;;4877722;29;20212;-57
2023/10/23 08:47:26;;;;;;;5.70;4.60;;;;;;;;;;4878010;29;20217;-58
2023/10/23 08:49:54;;;;;;;8.90;5.18;;;;;;;;;;4877710;29;20213;-58
2023/10/23 08:52:24;;;;;;;5.40;4.55;;;;;;;;;;4878185;29;20214;-56
2023/10/23 08:54:52;;;;;;;7.15;4.65;;;;;;;;;;4876527;29;20604;-56
2023/10/23 08:57:22;;;;;;;6.00;4.13;;;;;;;;;;4876568;29;20221;-57
2023/10/23 08:59:49;;;;;;;6.15;4.43;;;;;;;;;;4877396;29;20216;-57
2023/10/23 09:02:16;;;;;;;6.82;4.47;;;;;;;;;;4876324;29;20548;-58
2023/10/23 09:04:44;;;;;;;9.85;5.05;;;;;;;;;;4877195;29;20301;-57
2023/10/23 09:07:13;;;;;;;8.95;4.55;;;;;;;;;;4877256;29;20206;-57
2023/10/23 09:09:40;;;;;;;7.13;4.28;;;;;;;;;;4876492;29;20573;-57
2023/10/23 09:12:08;;;;;;;7.82;4.07;;;;;;;;;;4877207;29;20237;-59
2023/10/23 09:14:38;;;;;;;5.85;4.03;;;;;;;;;;4877174;29;20217;-55
2023/10/23 09:17:05;;;;;;;8.55;4.78;;;;;;;;;;4876008;29;20206;-57
2023/10/23 09:19:36;;;;;;;10.07;5.10;;;;;;;;;;4877271;29;20779;-57
2023/10/23 09:22:06;;;;;;;6.18;4.15;;;;;;;;;;4877411;29;20618;-56
2023/10/23 09:24:35;;;;;;;13.05;10.75;;;;;;;;;;4877563;29;20275;-56
2023/10/23 09:27:03;;;;;;;13.80;7.85;;;;;;;;;;4877458;29;20682;-57
2023/10/23 09:29:31;;;;;;;6.38;4.38;;;;;;;;;;4877204;29;20668;-55
2023/10/23 09:31:58;;;;;;;6.32;3.80;;;;;;;;;;4877282;29;20482;-56
2023/10/23 09:34:28;;;;;;;7.93;4.50;;;;;;;;;;4877643;29;20213;-57
2023/10/23 09:36:55;;;;;;;6.07;3.75;;;;;;;;;;4878958;29;20257;-57
2023/10/23 09:39:23;;;;;;;7.60;4.03;;;;;;;;;;4880833;29;20257;-57
2023/10/23 09:41:51;;;;;;;6.38;3.55;;;;;;;;;;4881089;29;20206;-56
2023/10/23 09:44:18;;;;;;;8.10;4.32;;;;;;;;;;4880721;29;20210;-58
2023/10/23 09:46:47;;;;;;;5.38;3.92;;;;;;;;;;4880558;29;20210;-57
2023/10/23 09:49:16;;;;;;;6.50;3.90;;;;;;;;;;4880950;29;20210;-58
2023/10/23 09:51:47;;;;;;;5.82;3.83;;;;;;;;;;4880631;29;20206;-58
2023/10/23 09:54:19;;;;;;;6.40;3.50;;;;;;;;;;4880621;29;20210;-56
2023/10/23 09:56:54;;;;;;;5.50;3.60;;;;;;;;;;4880532;29;20210;-57
2023/10/23 09:59:27;;;;;;;7.80;4.10;;;;;;;;;;4880364;29;20233;-59
2023/10/23 10:01:57;;;;;;;7.88;4.30;;;;;;;;;;4880555;29;20585;-56
2023/10/23 10:04:29;;;;;;;7.53;4.38;;;;;;;;;;4879230;29;20650;-57
2023/10/23 10:07:11;;;;;;;6.40;3.85;;;;;;;;;;4879236;29;20361;-57
2023/10/23 10:09:40;;;;;;;6.53;3.90;;;;;;;;;;4879098;29;20210;-55
2023/10/23 10:12:08;;;;;;;7.65;3.97;;;;;;;;;;4878891;29;20210;-57
2023/10/23 10:14:36;;;;;;;8.73;4.88;;;;;;;;;;4879160;29;20225;-57
2023/10/23 10:17:04;;;;;;;11.55;3.58;;;;;;;;;;4878712;29;20646;-57
2023/10/23 10:19:31;;;;;;;6.78;3.85;;;;;;;;;;4878750;29;20229;-57
2023/10/23 10:22:08;;;;;;;6.72;3.75;;;;;;;;;;4878897;29;20209;-56
2023/10/23 10:24:37;;;;;;;7.95;4.15;;;;;;;;;;4879898;29;20229;-57
2023/10/23 10:27:04;;;;;;;8.80;4.13;;;;;;;;;;4879980;29;20213;-57
2023/10/23 10:29:32;;;;;;;6.80;3.97;;;;;;;;;;4880083;29;20214;-57
2023/10/23 10:32:01;;;;;;;7.25;4.20;;;;;;;;;;4879628;29;20676;-57
2023/10/23 10:34:47;;;;;;;11.30;4.20;;;;;;;;;;4879858;29;20213;-55
2023/10/23 10:37:28;;;;;;;6.65;4.00;;;;;;;;;;4879833;29;20233;-56
2023/10/23 10:39:56;;;;;;;4.97;3.83;;;;;;;;;;4880147;29;20245;-57
2023/10/23 10:42:26;;;;;;;6.97;3.47;;;;;;;;;;4879893;29;20655;-57
2023/10/23 10:44:54;;;;;;;9.23;3.90;;;;;;;;;;4879613;29;20210;-58
2023/10/23 10:47:53;;;;;;;6.07;3.65;;;;;;;;;;4879031;29;20600;-55
2023/10/23 10:50:31;;;;;;;8.05;3.47;;;;;;;;;;4879675;29;20284;-57
2023/10/23 10:53:02;;;;;;;4.90;3.60;;;;;;;;;;4879500;29;20210;-56
2023/10/23 10:55:30;;;;;;;7.13;3.90;;;;;;;;;;4879665;29;20221;-56
2023/10/23 10:57:57;;;;;;;6.15;3.72;;;;;;;;;;4879209;29;20660;-58
2023/10/23 11:00:28;;;;;;;8.27;4.05;;;;;;;;;;4879374;29;20221;-56
2023/10/23 11:02:55;;;;;;;6.28;4.22;;;;;;;;;;4879178;29;20214;-54
2023/10/23 11:05:23;;;;;;;8.25;3.47;;;;;;;;;;4879256;29;20206;-57
2023/10/23 11:08:07;;;;;;;5.90;3.55;;;;;;;;;;4879275;29;20226;-56
2023/10/23 11:10:35;;;;;;;6.32;3.55;;;;;;;;;;4879288;29;20206;-57
2023/10/23 11:13:02;;;;;;;3.40;2.70;;;;;;;;;;4879112;29;20210;-57
2023/10/23 11:15:29;;;;;;;6.80;3.40;;;;;;;;;;4879174;29;20225;-57
2023/10/23 11:17:56;;;;;;;6.72;3.70;;;;;;;;;;4878820;29;20214;-56
2023/10/23 11:20:35;;;;;;;5.80;3.72;;;;;;;;;;4879226;29;20216;-57
2023/10/23 11:23:02;;;;;;;6.97;4.03;;;;;;;;;;4878863;29;20206;-56
2023/10/23 11:25:29;;;;;;;7.15;4.07;;;;;;;;;;4878734;29;20242;-57
2023/10/23 11:27:56;;;;;;;5.40;3.53;;;;;;;;;;4878868;29;20217;-57
2023/10/23 11:30:26;;;;;;;7.43;3.83;;;;;;;;;;4878757;29;20565;-57
2023/10/23 11:32:53;;;;;;;7.30;4.35;;;;;;;;;;4877441;29;20289;-56
2023/10/23 11:35:20;;;;;;;6.80;4.68;;;;;;;;;;4878898;29;20214;-57
2023/10/23 11:37:48;;;;;;;8.75;4.15;;;;;;;;;;4878569;29;20705;-56
2023/10/23 11:40:21;;;;;;;6.05;4.07;;;;;;;;;;4877616;29;20213;-57
2023/10/23 11:42:49;;;;;;;5.95;4.20;;;;;;;;;;4879047;29;20234;-57
2023/10/23 11:45:17;;;;;;;6.47;4.18;;;;;;;;;;4878556;29;20281;-56
2023/10/23 11:47:45;;;;;;;6.28;3.40;;;;;;;;;;4877854;29;20205;-57
2023/10/23 11:50:13;;;;;;;6.18;3.25;;;;;;;;;;4878056;29;20210;-55
2023/10/23 11:52:44;;;;;;;5.78;3.55;;;;;;;;;;4877725;29;20202;-58
2023/10/23 11:55:14;;;;;;;5.07;3.63;;;;;;;;;;4877755;29;20209;-58
2023/10/23 11:57:44;;;;;;;5.78;3.60;;;;;;;;;;4877842;29;20236;-56
2023/10/23 12:00:12;;;;;;;5.63;3.22;;;;;;;;;;4877138;29;20233;-58
2023/10/23 12:02:45;;;;;;;8.65;3.53;;;;;;;;;;4875416;29;20214;-58
2023/10/23 12:05:16;;;;;;;6.47;3.70;;;;;;;;;;4876749;29;20206;-57
2023/10/23 12:07:54;;;;;;;7.43;3.63;;;;;;;;;;4875716;29;20204;-59
2023/10/23 12:10:26;;;;;;;7.38;3.38;;;;;;;;;;4875044;29;20209;-57
2023/10/23 12:12:54;;;;;;;10.35;3.70;;;;;;;;;;4877442;29;20226;-56
2023/10/23 12:15:27;;;;;;;6.07;3.88;;;;;;;;;;4877653;29;20254;-57
2023/10/23 12:18:02;;;;;;;4.35;3.15;;;;;;;;;;4875258;29;20595;-56
2023/10/23 12:20:31;;;;;;;5.68;3.65;;;;;;;;;;4877432;29;20220;-56
2023/10/23 12:22:58;;;;;;;9.40;3.70;;;;;;;;;;4877347;29;20201;-57
2023/10/23 12:25:25;;;;;;;5.60;3.90;;;;;;;;;;4877436;29;20719;-57
2023/10/23 12:27:52;;;;;;;6.40;3.50;;;;;;;;;;4874946;29;20203;-57
2023/10/23 12:30:21;;;;;;;6.68;3.92;;;;;;;;;;4868993;29;20238;-57
2023/10/23 12:32:53;;;;;;;6.82;3.50;;;;;;;;;;4875805;29;20222;-59
2023/10/23 12:35:40;;;;;;;6.28;3.17;;;;;;;;;;4875418;29;20236;-57
2023/10/23 12:38:10;;;;;;;6.13;3.53;;;;;;;;;;4876522;29;20729;-57
2023/10/23 12:40:43;;;;;;;5.75;3.47;;;;;;;;;;4875658;29;20222;-56
2023/10/23 12:43:10;;;;;;;7.47;3.65;;;;;;;;;;4879667;29;20285;-59
2023/10/23 12:45:37;;;;;;;4.78;3.70;;;;;;;;;;4875705;29;20233;-57
2023/10/23 12:48:05;;;;;;;7.88;3.97;;;;;;;;;;4876742;29;20230;-57
2023/10/23 12:50:33;;;;;;;4.38;3.85;;;;;;;;;;4876552;29;20230;-58
2023/10/23 12:53:00;;;;;;;5.80;3.63;;;;;;;;;;4875528;29;20361;-58
2023/10/23 12:55:27;;;;;;;5.65;4.28;;;;;;;;;;4876637;29;20350;-57
2023/10/23 12:57:54;;;;;;;4.97;3.80;;;;;;;;;;4876472;29;20214;-56
2023/10/23 13:00:21;;;;;;;7.90;4.30;;;;;;;;;;4876099;29;20755;-57
2023/10/23 13:02:48;;;;;;;5.93;3.97;;;;;;;;;;4876365;29;20244;-59
2023/10/23 13:05:16;;;;;;;6.95;4.60;;;;;;;;;;4873005;29;20257;-59
2023/10/23 13:07:43;;;;;;;7.40;4.45;;;;;;;;;;4876027;29;20237;-58
2023/10/23 13:10:11;;;;;;;7.95;4.32;;;;;;;;;;4877304;29;20234;-55
2023/10/23 13:12:38;;;;;;;9.25;4.93;;;;;;;;;;4880144;29;20273;-58
2023/10/23 13:15:05;;;;;;;9.23;5.15;;;;;;;;;;4879845;29;20234;-55
2023/10/23 13:17:32;;;;;;;8.82;5.35;;;;;;;;;;4880088;29;20280;-58
2023/10/23 13:20:00;;;;;;;8.23;5.28;;;;;;;;;;4879069;29;20249;-58
2023/10/23 13:22:48;;;;;;;6.72;4.93;;;;;;;;;;4879290;29;20309;-58
2023/10/23 13:25:18;;;;;;;9.38;4.60;;;;;;;;;;4892632;29;20246;-58
2023/10/23 13:27:45;;;;;;;7.40;5.03;;;;;;;;;;4879615;29;20234;-58
2023/10/23 13:30:13;;;;;;;9.52;5.35;;;;;;;;;;4879630;29;20230;-58
2023/10/23 13:32:40;;;;;;;6.78;4.80;;;;;;;;;;4879565;29;20600;-58
2023/10/23 13:35:08;;;;;;;7.40;4.43;;;;;;;;;;4880147;29;20230;-57
2023/10/23 13:37:35;;;;;;;7.63;5.05;;;;;;;;;;4879780;29;20234;-57
2023/10/23 13:40:07;;;;;;;6.65;4.32;;;;;;;;;;4879903;29;20245;-57
2023/10/23 13:42:35;;;;;;;13.20;5.30;;;;;;;;;;4880104;29;20234;-58
2023/10/23 13:45:02;;;;;;;6.47;4.70;;;;;;;;;;4879467;29;20234;-58
2023/10/23 13:47:30;;;;;;;7.30;4.97;;;;;;;;;;4879818;29;20719;-57
2023/10/23 13:49:58;;;;;;;8.00;4.43;;;;;;;;;;4879928;29;20218;-57
2023/10/23 13:52:25;;;;;;;8.38;4.78;;;;;;;;;;4879426;29;20278;-58
2023/10/23 13:54:55;;;;;;;8.88;4.95;;;;;;;;;;4880019;29;20336;-58
2023/10/23 13:57:22;;;;;;;6.13;4.63;;;;;;;;;;4879873;29;20313;-58
2023/10/23 13:59:50;;;;;;;6.93;5.03;;;;;;;;;;4879558;29;20242;-59
2023/10/23 14:02:17;;;;;;;7.05;4.72;;;;;;;;;;4879113;29;20233;-56
2023/10/23 14:04:44;;;;;;;11.82;4.80;;;;;;;;;;4879464;29;20241;-58
2023/10/23 14:07:12;;;;;;;8.18;4.88;;;;;;;;;;4879622;29;20725;-57
2023/10/23 14:09:40;;;;;;;7.75;5.10;;;;;;;;;;4879645;29;20242;-57
2023/10/23 14:12:14;;;;;;;10.20;5.55;;;;;;;;;;4878090;29;20586;-57
2023/10/23 14:14:42;;;;;;;15.93;6.10;;;;;;;;;;4877512;29;20226;-58
2023/10/23 14:17:09;;;;;;;8.02;5.72;;;;;;;;;;4877691;29;20217;-47
2023/10/23 14:19:37;;;;;;;10.75;5.82;;;;;;;;;;4876966;29;20233;-52
2023/10/23 14:22:16;;;;;;;9.40;5.95;;;;;;;;;;4875922;29;20691;-49
2023/10/23 14:24:43;;;;;;;8.45;6.07;;;;;;;;;;4877294;29;20242;-47
2023/10/23 14:27:11;;;;;;;7.72;5.93;;;;;;;;;;4878238;29;20653;-48
2023/10/23 14:29:38;;;;;;;10.77;6.97;;;;;;;;;;4876904;29;20242;-51
2023/10/23 14:32:06;;;;;;;9.85;6.50;;;;;;;;;;4875649;29;20557;-49
2023/10/23 14:34:35;;;;;;;14.30;6.47;;;;;;;;;;4878594;29;20212;-49
2023/10/23 14:37:02;;;;;;;13.38;6.65;;;;;;;;;;4879337;29;20226;-48
2023/10/23 14:39:30;;;;;;;9.45;6.65;;;;;;;;;;4878634;29;20226;-48
2023/10/23 14:41:57;;;;;;;10.55;6.88;;;;;;;;;;4879364;29;20198;-49
2023/10/23 14:44:24;;;;;;;13.73;6.55;;;;;;;;;;4879216;29;20218;-49
2023/10/23 14:46:52;;;;;;;12.13;6.88;;;;;;;;;;4879583;29;20687;-49